Flight Track Log - Related Links

Times and Time Zones

All times are in EDT time to prevent confusion due to time zone crossing. See the EJA982 flight status page for this flight to view local times or setup timezone preferences in your user account.

Time Position Orientation Groundspeed Altitude Reporting Facility
EDT Latitude Longitude Course Direction KTS MPH feet Rate Location/Type
Sat 01:58:00 PM 33.8556 -116.5317 342° North 190 219 40,000  Level Los Angeles Center
Sat 02:00:04 PM 33.9811 -116.5392 357° North 269 310 10,200 -8,535 Descending Los Angeles Center
Sat 02:01:07 PM 34.0614 -116.5267 North 287 330 13,400 2,736 Climbing Los Angeles Center
Sat 02:02:09 PM 34.1747 -116.5469 352° North 363 418 15,900 2,323 Climbing Los Angeles Center
Sat 02:03:00 PM 34.3417 -116.6033 342° North  Level FlightAware Approximate
Sat 02:03:11 PM 34.2633 -116.6150 328° Northwest 386 444 18,200  Level Los Angeles Center
Sat 02:04:13 PM 34.3019 -116.7350 291° West 399 459 20,700 2,419 Climbing Los Angeles Center
Sat 02:05:15 PM 34.3339 -116.8625 287° West 398 458 23,200 2,226 Climbing Los Angeles Center
Sat 02:06:17 PM 34.3667 -116.9956 287° West 405 466 25,300 1,839 Climbing Los Angeles Center
Sat 02:07:19 PM 34.4158 -117.1225 295° West 417 480 27,000 1,500 Climbing Los Angeles Center
Sat 02:08:21 PM 34.5258 -117.2408 318° Northwest 440 506 28,400 1,403 Climbing Los Angeles Center
Sat 02:09:23 PM 34.6236 -117.3425 319° Northwest 455 524 29,900 1,645 Climbing Los Angeles Center
Sat 02:10:25 PM 34.7208 -117.4458 319° Northwest 461 531 31,800 1,694 Climbing Los Angeles Center
Sat 02:11:27 PM 34.8192 -117.5511 319° Northwest 466 536 33,400 1,536 Climbing Los Angeles Center
Sat 02:12:30 PM 34.9217 -117.6600 319° Northwest 477 549 35,000 1,488 Climbing Los Angeles Center
Sat 02:13:32 PM 35.0272 -117.7728 319° Northwest 489 563 36,500 1,452 Climbing Los Angeles Center
Sat 02:14:34 PM 35.1303 -117.8811 319° Northwest 480 552 38,000 1,392 Climbing Los Angeles Center
Sat 02:15:37 PM 35.2306 -117.9889 319° Northwest 479 551 39,400 968 Climbing Los Angeles Center
Sat 02:16:38 PM 35.3489 -118.1158 319° Northwest 472 543 40,000 293 Climbing Los Angeles Center
Sat 02:17:40 PM 35.4478 -118.2228 319° Northwest 474 545 40,000  Level Los Angeles Center
Sat 02:18:42 PM 35.5478 -118.3289 319° Northwest 474 545 40,000  Level Los Angeles Center
Sat 02:19:44 PM 35.6264 -118.4128 319° Northwest 472 543 40,000  Level Los Angeles Center
Sat 02:20:46 PM 35.7425 -118.5392 319° Northwest 469 540 40,000  Level Los Angeles Center
Sat 02:21:49 PM 35.8594 -118.6683 318° Northwest 471 542 40,000  Level Los Angeles Center
Sat 02:22:07 PM 35.8772 -118.6878 318° Northwest 472 543 40,000  Level Oakland Center
Sat 02:23:09 PM 35.9750 -118.7953 318° Northwest 473 544 40,000  Level Oakland Center
Sat 02:24:10 PM 36.1047 -118.8928 329° Northwest 467 537 40,000  Level Oakland Center
Sat 02:25:12 PM 36.2317 -118.9347 345° North 468 539 40,000  Level Oakland Center
Sat 02:26:13 PM 36.3600 -118.9758 346° North 472 543 40,000  Level Oakland Center
Sat 02:27:15 PM 36.4864 -119.0203 344° North 473 544 40,000  Level Oakland Center
Sat 02:28:17 PM 36.6125 -119.0611 345° North 472 543 40,000  Level Oakland Center
Sat 02:29:18 PM 36.7392 -119.1042 345° North 471 542 40,000  Level Oakland Center
Sat 02:30:20 PM 36.8656 -119.1472 345° North 475 547 40,000  Level Oakland Center
Sat 02:31:21 PM 37.0169 -119.1989 345° North 476 548 40,000  Level Oakland Center
Sat 02:32:23 PM 37.1425 -119.2422 345° North 469 540 40,000  Level Oakland Center
Sat 02:33:24 PM 37.2672 -119.2850 345° North 481 554 40,000  Level Oakland Center
Sat 02:34:26 PM 37.3922 -119.3297 344° North 470 541 40,000  Level Oakland Center
Sat 02:35:27 PM 37.5161 -119.3736 344° North 465 535 40,000  Level Oakland Center
Sat 02:36:29 PM 37.6433 -119.4108 347° North 459 528 40,000  Level Oakland Center
Sat 02:37:30 PM 37.7678 -119.4542 345° North 462 532 40,000  Level Oakland Center
Sat 02:38:32 PM 37.8931 -119.4961 345° North 466 536 40,000  Level Oakland Center
Sat 02:39:33 PM 38.0206 -119.5383 345° North 471 542 40,000  Level Oakland Center
Sat 02:40:35 PM 38.1697 -119.5919 344° North 469 540 40,000  Level Oakland Center
Sat 02:41:36 PM 38.2900 -119.6367 344° North 459 528 40,000  Level Oakland Center
Sat 02:42:38 PM 38.4172 -119.6817 345° North 464 534 40,000  Level Oakland Center
Sat 02:43:39 PM 38.5419 -119.7267 344° North 464 534 40,000  Level Oakland Center
Sat 02:44:41 PM 38.6672 -119.7703 345° North 465 535 40,000  Level Oakland Center
Sat 02:45:42 PM 38.7861 -119.8139 344° North 463 533 40,000  Level Oakland Center
Sat 02:46:43 PM 38.9103 -119.8569 345° North 463 533 40,000  Level Oakland Center
Sat 02:47:45 PM 39.0397 -119.9033 344° North 461 531 40,000  Level Oakland Center
Sat 02:48:46 PM 39.1633 -119.9469 345° North 459 528 40,000  Level Oakland Center
Sat 02:49:48 PM 39.2867 -119.9933 344° North 460 529 40,000  Level Oakland Center
Sat 02:50:49 PM 39.4100 -120.0372 345° North 458 527 40,000  Level Oakland Center
Sat 02:51:51 PM 39.5589 -120.0914 344° North 459 528 40,000  Level Oakland Center
Sat 02:52:52 PM 39.6708 -120.1333 344° North 458 527 40,000  Level Oakland Center
Sat 02:54:55 PM 39.9169 -120.2236 344° North 461 531 40,000  Level Oakland Center
Sat 02:55:57 PM 40.0533 -120.2753 344° North 463 533 40,000  Level Oakland Center
Sat 02:56:58 PM 40.1783 -120.3222 344° North 465 535 40,000  Level Oakland Center
Sat 02:57:59 PM 40.3050 -120.3686 344° North 472 543 40,000  Level Oakland Center
Sat 02:59:12 PM 40.4625 -120.4256 345° North 462 532 40,000  Level Seattle Center
Sat 03:00:13 PM 40.5878 -120.4731 344° North 464 534 40,000  Level Seattle Center
Sat 03:01:04 PM 40.6881 -120.5097 345° North 474 545 40,000  Level Oakland Center
Sat 03:02:05 PM 40.8122 -120.5581 344° North 465 535 40,000  Level Oakland Center
Sat 03:03:07 PM 40.9378 -120.6036 345° North 468 539 40,000  Level Oakland Center
Sat 03:04:08 PM 41.0628 -120.6558 343° North 473 544 40,000  Level Oakland Center
Sat 03:05:09 PM 41.2125 -120.7114 344° North 466 536 40,000  Level Oakland Center
Sat 03:06:11 PM 41.3378 -120.7600 344° North 468 539 40,000  Level Oakland Center
Sat 03:07:12 PM 41.4611 -120.8086 344° North 471 542 40,000  Level Oakland Center
Sat 03:08:20 PM 41.5867 -120.8567 344° North 467 537 40,000  Level Seattle Center
Sat 03:09:20 PM 41.7347 -120.9156 343° North 464 534 40,000  Level Seattle Center
Sat 03:10:21 PM 41.8572 -120.9636 344° North 462 532 40,000  Level Seattle Center
Sat 03:11:22 PM 41.9786 -121.0106 344° North 458 527 40,000  Level Seattle Center
Sat 03:12:23 PM 42.0992 -121.0592 343° North 455 524 40,000  Level Seattle Center
Sat 03:13:24 PM 42.2203 -121.1064 344° North 455 524 40,000  Level Seattle Center
Sat 03:14:25 PM 42.3406 -121.1536 344° North 453 521 40,000  Level Seattle Center
Sat 03:15:26 PM 42.4592 -121.2017 343° North 450 518 40,000  Level Seattle Center
Sat 03:16:27 PM 42.5775 -121.2483 344° North 447 514 40,000  Level Seattle Center
Sat 03:17:27 PM 42.6972 -121.2950 344° North 450 518 40,000  Level Seattle Center
Sat 03:18:28 PM 42.8156 -121.3444 343° North 448 516 40,000  Level Seattle Center
Sat 03:19:29 PM 42.9344 -121.3906 344° North 445 512 40,000  Level Seattle Center
Sat 03:20:30 PM 43.0775 -121.4508 343° North 448 516 40,000  Level Seattle Center
Sat 03:21:31 PM 43.1964 -121.5003 343° North 448 516 40,000  Level Seattle Center
Sat 03:22:32 PM 43.3144 -121.5481 344° North 445 512 40,000  Level Seattle Center
Sat 03:23:33 PM 43.4331 -121.5986 343° North 447 514 40,000  Level Seattle Center
Sat 03:24:34 PM 43.5522 -121.6472 344° North 447 514 40,000  Level Seattle Center
Sat 03:25:35 PM 43.6719 -121.6958 344° North 449 517 40,000  Level Seattle Center
Sat 03:26:35 PM 43.7917 -121.7461 343° North 450 518 40,000  Level Seattle Center
Sat 03:27:36 PM 43.9200 -121.7964 344° North 447 514 40,000  Level Seattle Center
Sat 03:28:37 PM 44.0389 -121.8475 343° North 446 513 40,000  Level Seattle Center
Sat 03:29:38 PM 44.1658 -121.8986 344° North 450 518 40,000  Level Seattle Center
Sat 03:30:39 PM 44.2864 -121.9514 343° North 454 522 40,000  Level Seattle Center
Sat 03:31:40 PM 44.4072 -122.0025 343° North 456 525 40,000  Level Seattle Center
Sat 03:32:41 PM 44.5258 -122.0539 343° North 450 518 40,000  Level Seattle Center
Sat 03:33:42 PM 44.6450 -122.1047 343° North 450 518 40,000  Level Seattle Center
Sat 03:34:43 PM 44.7633 -122.1561 343° North 448 516 40,000  Level Seattle Center
Sat 03:35:44 PM 44.8750 -122.2050 343° North 446 513 40,000  Level Seattle Center
Sat 03:36:45 PM 44.9911 -122.2561 343° North 443 510 40,000  Level Seattle Center
Sat 03:37:46 PM 45.1292 -122.3147 343° North 435 501 40,000  Level Seattle Center
Sat 03:38:47 PM 45.2406 -122.3650 342° North 428 493 40,000  Level Seattle Center
Sat 03:39:48 PM 45.3525 -122.4139 343° North 425 489 40,000  Level Seattle Center
Sat 03:40:49 PM 45.4619 -122.4642 342° North 420 483 40,000  Level Seattle Center
Sat 03:41:50 PM 45.5706 -122.5106 343° North 414 476 40,000  Level Seattle Center
Sat 03:42:51 PM 45.6783 -122.5592 343° North 410 472 40,000  Level Seattle Center
Sat 03:43:52 PM 45.7903 -122.6011 345° North 418 481 40,000 -595 Level Seattle Center
Sat 03:44:52 PM 45.9069 -122.6281 351° North 427 491 38,800 -1,736 Descending Seattle Center
Sat 03:45:53 PM 46.0239 -122.6575 350° North 428 493 36,500 -2,262 Descending Seattle Center
Sat 03:46:54 PM 46.1458 -122.6911 349° North 441 507 34,200 -2,311 Descending Seattle Center
Sat 03:47:55 PM 46.2719 -122.7217 350° North 439 505 31,800 -2,311 Descending Seattle Center
Sat 03:48:56 PM 46.3894 -122.7544 349° North 434 499 29,500 -2,164 Descending Seattle Center
Sat 03:49:57 PM 46.4983 -122.7822 350° North 408 470 27,400 -2,213 Descending Seattle Center
Sat 03:50:58 PM 46.6233 -122.8136 350° North 388 447 25,000 -2,213 Descending Seattle Center
Sat 03:51:59 PM 46.7253 -122.8397 350° North 378 435 22,900 -2,129 Descending Seattle Center
Sat 03:52:31 PM 46.7769 -122.8331 North 359 413 21,700 -2,262 Descending Seattle Center
Sat 03:53:00 PM 46.8217 -122.8142 16° North 364 419 20,600 -2,400 Descending Seattle Center
Sat 03:53:26 PM 46.8656 -122.7889 21° North 362 417 19,500 -1,967 Descending Seattle Center
Sat 03:54:01 PM 46.9133 -122.7597 23° Northeast 358 412 18,600 -1,855 Descending Seattle Center
Sat 03:54:21 PM 46.9489 -122.7411 20° North 348 400 17,800 -1,672 Descending Seattle Center
Sat 03:55:02 PM 47.0014 -122.7089 23° Northeast 346 398 16,900 -1,672 Descending Seattle Center
Sat 03:55:22 PM 47.0381 -122.6900 19° North 339 390 16,100 -1,869 Descending Seattle Center
Sat 03:56:03 PM 47.0881 -122.6589 23° Northeast 339 390 15,000 -1,869 Descending Seattle Center
Sat 03:56:23 PM 47.1233 -122.6406 19° North 334 384 14,200 -1,900 Descending Seattle Center
Sat 03:57:03 PM 47.1719 -122.6111 22° Northeast 328 377 13,100 -1,967 Descending Seattle Center
Sat 03:57:24 PM 47.2086 -122.5911 20° North 327 376 12,200 -1,475 Descending Seattle Center
Sat 03:58:04 PM 47.2556 -122.5775 11° North 309 356 11,600 -1,180 Descending Seattle Center
Sat 03:58:25 PM 47.2964 -122.5694 North 284 327 11,000 -1,377 Descending Seattle Center
Sat 03:59:05 PM 47.3494 -122.5592 North 287 330 10,200 -1,500 Descending Seattle Center
Sat 03:59:25 PM 47.3769 -122.5550 North 287 330 9,500 -1,770 Descending Seattle Center
Sat 04:00:06 PM 47.4303 -122.5453 North 294 338 8,400 -1,574 Descending Seattle Center
Sat 04:00:26 PM 47.4558 -122.5414 North 278 320 7,900 -1,377 Descending Seattle Center
Sat 04:01:07 PM 47.5036 -122.5347 North 268 308 7,000 -1,433 Descending Seattle Center
Sat 04:01:33 PM 47.5361 -122.5433 350° North 262 302 6,300 -2,066 Descending Seattle Center
Sat 04:02:08 PM 47.5794 -122.5569 348° North 264 304 4,900 -1,770 Descending Seattle Center
Sat 04:02:34 PM 47.6050 -122.5614 353° North 252 290 4,500 -1,082 Descending Seattle Center
Sat 04:03:09 PM 47.6500 -122.5539 North 256 295 3,800 -1,377 Descending Seattle Center
Sat 04:03:35 PM 47.6714 -122.5153 51° Northeast 265 305 3,100 -1,500 Descending Seattle Center
Sat 04:04:09 PM 47.6881 -122.4642 64° Northeast 253 291 2,300 -885 Descending Seattle Center
Sat 04:04:36 PM 47.6747 -122.4311 121° Southeast 200 230 2,200 -98 Descending Seattle Center
Sat 04:05:10 PM 47.6514 -122.4075 146° Southeast 192 221 2,200 -100 Level Seattle Center
Sat 04:05:36 PM 47.6317 -122.3925 153° Southeast 166 191 2,100 -492 Descending Seattle Center
Sat 04:06:11 PM 47.6086 -122.3703 147° Southeast 178 205 1,700 -787 Descending Seattle Center
Sat 04:06:37 PM 47.5903 -122.3528 147° Southeast 175 201 1,300 -885 Descending Seattle Center
Sat 04:07:12 PM 47.5706 -122.3383 154° Southeast 157 181 800 -787 Descending Seattle Center
Sat 04:07:38 PM 47.5575 -122.3281 152° Southeast 138 159 500 -492 Descending Seattle Center
Sat 04:08:13 PM 47.5408 -122.3122 147° Southeast 124 143 300 -343 Descending Seattle Center

Login

Don't have an account? Register now (free) for customized features, flight alerts, and more!